Time;durP1;ratioP1;P1;durP2;ratioP2;P2;SDS_P1;SDS_P2;PMS_P1;PMS_P2;Temp;Humidity;BMP_temperature;BMP_pressure;BME280_temperature;BME280_humidity;BME280_pressure;Samples;Min_cycle;Max_cycle;Signal;HPM_P1;HPM_P2
2021/12/12 00:02:22;;;;;;;10.52;9.80;;;0.70;99.90;;;;;;5105265;27;20951;-57
2021/12/12 00:05:08;;;;;;;12.02;11.13;;;0.70;99.90;;;;;;5084471;28;20684;-57
2021/12/12 00:07:49;;;;;;;11.65;10.75;;;0.70;99.90;;;;;;5085151;27;20672;-57
2021/12/12 00:10:33;;;;;;;11.95;10.85;;;0.70;99.90;;;;;;5146445;27;20677;-57
2021/12/12 00:13:18;;;;;;;11.88;10.80;;;0.70;99.90;;;;;;5105073;27;21190;-57
2021/12/12 00:15:58;;;;;;;11.57;10.65;;;0.70;99.90;;;;;;5084247;28;20547;-57
2021/12/12 00:18:38;;;;;;;11.95;10.95;;;0.80;99.90;;;;;;5146568;27;20649;-57
2021/12/12 00:21:20;;;;;;;11.23;10.23;;;0.80;99.90;;;;;;5084983;28;20848;-57
2021/12/12 00:23:59;;;;;;;12.90;11.90;;;0.80;99.90;;;;;;5084084;28;20569;-57
2021/12/12 00:26:39;;;;;;;12.45;11.38;;;0.90;99.90;;;;;;5084856;28;20664;-57
2021/12/12 00:29:21;;;;;;;11.57;10.68;;;0.90;99.90;;;;;;5084702;28;20675;-57
2021/12/12 00:32:04;;;;;;;11.98;11.07;;;0.90;99.90;;;;;;5146590;27;20649;-57
2021/12/12 00:34:46;;;;;;;11.75;10.85;;;0.90;99.90;;;;;;5124685;27;21060;-57
2021/12/12 00:37:25;;;;;;;11.80;10.90;;;0.90;99.90;;;;;;5084890;28;20668;-57
2021/12/12 00:40:12;;;;;;;11.75;10.95;;;0.90;99.90;;;;;;5125897;27;20559;-57
2021/12/12 00:42:56;;;;;;;12.45;11.45;;;0.90;99.90;;;;;;5105115;27;21203;-57
2021/12/12 00:45:35;;;;;;;12.50;11.52;;;0.90;99.90;;;;;;5082137;27;20570;-57
2021/12/12 00:48:15;;;;;;;12.82;11.88;;;1.00;99.90;;;;;;5104237;27;20542;-57
2021/12/12 00:50:55;;;;;;;13.60;12.57;;;1.00;99.90;;;;;;5105060;27;20689;-57
2021/12/12 00:53:35;;;;;;;12.38;11.27;;;1.00;99.90;;;;;;5104944;27;20657;-57
2021/12/12 00:56:15;;;;;;;13.75;12.60;;;1.00;99.90;;;;;;5084489;28;20687;-57
2021/12/12 00:58:54;;;;;;;13.32;12.23;;;1.00;99.90;;;;;;5146084;27;20538;-57
2021/12/12 01:01:38;;;;;;;12.65;11.55;;;1.00;99.90;;;;;;5146990;27;20550;-57
2021/12/12 01:04:21;;;;;;;16.58;13.43;;;1.00;99.90;;;;;;5084141;28;20962;-57
2021/12/12 01:07:08;;;;;;;14.68;13.43;;;1.00;99.90;;;;;;5085032;28;21188;-57
2021/12/12 01:09:52;;;;;;;12.73;11.55;;;1.00;99.90;;;;;;5146026;27;20696;-57
2021/12/12 01:12:33;;;;;;;13.02;12.02;;;1.00;99.90;;;;;;5084814;28;21121;-57
2021/12/12 01:15:20;;;;;;;13.75;12.65;;;1.00;99.90;;;;;;5083801;28;20672;-57
2021/12/12 01:18:09;;;;;;;12.60;11.68;;;1.00;99.90;;;;;;5105311;27;20538;-57
2021/12/12 01:20:52;;;;;;;13.85;12.75;;;1.00;99.90;;;;;;5084611;28;20695;-57
2021/12/12 01:23:36;;;;;;;14.57;13.23;;;1.00;99.90;;;;;;5084341;28;20664;-57
2021/12/12 01:26:16;;;;;;;14.20;12.93;;;1.00;99.90;;;;;;5083989;28;21211;-57
2021/12/12 01:28:58;;;;;;;14.43;13.25;;;1.00;99.90;;;;;;5084835;27;20600;-57
2021/12/12 01:31:46;;;;;;;14.10;12.98;;;1.00;99.90;;;;;;5084793;28;20683;-57
2021/12/12 01:34:29;;;;;;;14.60;13.23;;;1.00;99.90;;;;;;5125179;27;20540;-57
2021/12/12 01:37:34;;;;;;;13.90;12.77;;;1.10;99.90;;;;;;5085466;28;20656;-57
2021/12/12 01:40:19;;;;;;;15.90;14.43;;;1.10;99.90;;;;;;5085436;27;21042;-57
2021/12/12 01:43:01;;;;;;;15.30;13.93;;;1.10;99.90;;;;;;5085823;28;20671;-57
2021/12/12 01:45:45;;;;;;;16.45;15.15;;;1.10;99.90;;;;;;5123213;27;20540;-57
2021/12/12 01:48:29;;;;;;;15.93;14.63;;;1.10;99.90;;;;;;5084309;28;20663;-57
2021/12/12 01:51:11;;;;;;;16.30;14.80;;;1.10;99.90;;;;;;5105099;27;20550;-57
2021/12/12 01:53:53;;;;;;;17.23;15.80;;;1.10;99.90;;;;;;5084384;28;20668;-57
2021/12/12 01:56:39;;;;;;;16.88;15.43;;;1.10;99.90;;;;;;5084390;28;20664;-56
2021/12/12 01:59:21;;;;;;;16.02;14.57;;;1.10;99.90;;;;;;5084719;27;20570;-57
2021/12/12 02:02:08;;;;;;;17.52;14.73;;;1.10;99.90;;;;;;5125268;27;20548;-57
2021/12/12 02:04:49;;;;;;;17.40;15.75;;;1.10;99.90;;;;;;5124719;27;20540;-57
2021/12/12 02:07:35;;;;;;;16.00;14.60;;;1.10;99.90;;;;;;5146200;27;20539;-57
2021/12/12 02:10:18;;;;;;;15.90;14.60;;;1.10;99.90;;;;;;5084681;28;20555;-57
2021/12/12 02:13:00;;;;;;;15.20;14.02;;;1.10;99.90;;;;;;5124547;27;20660;-57
2021/12/12 02:15:44;;;;;;;16.92;15.43;;;1.10;99.90;;;;;;5082820;28;20535;-57
2021/12/12 02:18:31;;;;;;;16.63;15.13;;;1.10;99.90;;;;;;5085102;28;20534;-57
2021/12/12 02:21:18;;;;;;;17.73;16.23;;;1.10;99.90;;;;;;5081125;27;20585;-57
2021/12/12 02:24:35;;;;;;;16.85;15.20;;;1.10;99.90;;;;;;5103666;27;20553;-57
2021/12/12 02:36:29;;;;;;;17.92;16.20;;;1.10;99.90;;;;;;5104468;27;20538;-57
2021/12/12 02:39:15;;;;;;;16.92;15.48;;;1.10;99.90;;;;;;5125702;27;20532;-57
2021/12/12 02:41:59;;;;;;;17.80;16.10;;;1.10;99.90;;;;;;5084536;27;21039;-57
2021/12/12 02:44:41;;;;;;;18.73;16.85;;;1.10;99.90;;;;;;5145607;27;20539;-57
2021/12/12 02:47:31;;;;;;;18.08;16.40;;;1.10;99.90;;;;;;5082263;27;20622;-57
2021/12/12 02:50:16;;;;;;;17.17;15.50;;;1.10;99.90;;;;;;5146458;27;20546;-57
2021/12/12 02:53:00;;;;;;;17.10;15.68;;;1.10;99.90;;;;;;5145889;27;20938;-57
2021/12/12 02:55:44;;;;;;;15.98;14.48;;;1.10;99.90;;;;;;5104213;27;20550;-57
2021/12/12 02:58:24;;;;;;;17.13;15.52;;;1.10;99.90;;;;;;5084386;28;21195;-57
2021/12/12 03:01:12;;;;;;;16.13;14.63;;;1.10;99.90;;;;;;5084074;27;21153;-57
2021/12/12 03:03:52;;;;;;;17.13;15.45;;;1.10;99.90;;;;;;5084107;28;20660;-57
2021/12/12 03:06:36;;;;;;;17.17;15.55;;;1.10;99.90;;;;;;5084426;28;20656;-57
2021/12/12 03:09:19;;;;;;;16.27;14.95;;;1.10;99.90;;;;;;5084849;28;20671;-57
2021/12/12 03:12:01;;;;;;;17.65;15.38;;;1.10;99.90;;;;;;5084957;28;20735;-57
2021/12/12 03:14:41;;;;;;;17.20;15.45;;;1.10;99.90;;;;;;5084261;28;21079;-57
2021/12/12 03:17:23;;;;;;;15.65;14.35;;;1.10;99.90;;;;;;5084891;27;20543;-57
2021/12/12 03:20:23;;;;;;;16.08;14.68;;;1.10;99.90;;;;;;5104845;27;20545;-57
2021/12/12 03:23:05;;;;;;;17.42;15.82;;;1.10;99.90;;;;;;5084388;28;20680;-57
2021/12/12 03:25:47;;;;;;;17.17;15.55;;;1.10;99.90;;;;;;5084067;28;20664;-57
2021/12/12 03:28:29;;;;;;;16.65;15.15;;;1.10;99.90;;;;;;5105367;27;20534;-57
2021/12/12 03:31:13;;;;;;;15.63;14.00;;;1.10;99.90;;;;;;5084565;28;20675;-57
2021/12/12 03:33:53;;;;;;;14.93;13.73;;;1.10;99.90;;;;;;5145614;27;20542;-57
2021/12/12 03:36:33;;;;;;;15.38;13.82;;;1.10;99.90;;;;;;5084615;27;20570;-57
2021/12/12 03:39:15;;;;;;;14.60;13.50;;;1.10;99.90;;;;;;5085269;28;20543;-57
2021/12/12 03:41:58;;;;;;;15.43;14.13;;;1.10;99.90;;;;;;5084972;28;21022;-57
2021/12/12 03:44:40;;;;;;;16.13;14.50;;;1.10;99.90;;;;;;5084329;28;20672;-57
2021/12/12 03:47:23;;;;;;;16.23;14.90;;;1.10;99.90;;;;;;5082690;27;20544;-57
2021/12/12 03:50:10;;;;;;;16.63;15.18;;;1.10;99.90;;;;;;5085280;28;20664;-57
2021/12/12 03:52:52;;;;;;;16.17;14.80;;;1.10;99.90;;;;;;5084758;27;20551;-57
2021/12/12 03:55:33;;;;;;;16.40;14.90;;;1.10;99.90;;;;;;5084921;27;20557;-57
2021/12/12 03:58:15;;;;;;;16.05;14.45;;;1.10;99.90;;;;;;5084963;28;20667;-57
2021/12/12 04:01:00;;;;;;;14.95;13.73;;;1.10;99.90;;;;;;5084838;27;20933;-57
2021/12/12 04:03:41;;;;;;;15.35;14.07;;;1.10;99.90;;;;;;5084128;27;20543;-57
2021/12/12 04:06:25;;;;;;;15.55;14.35;;;1.10;99.90;;;;;;5145839;27;21189;-57
2021/12/12 04:09:07;;;;;;;14.52;13.32;;;1.10;99.90;;;;;;5146337;27;20654;-57
2021/12/12 04:11:51;;;;;;;14.30;13.13;;;1.10;99.90;;;;;;5125337;27;20587;-57
2021/12/12 04:14:30;;;;;;;14.55;13.25;;;1.10;99.90;;;;;;5084031;27;21046;-57
2021/12/12 04:17:13;;;;;;;15.15;13.80;;;1.20;99.90;;;;;;5084956;27;21007;-57
2021/12/12 04:19:55;;;;;;;14.25;13.10;;;1.20;99.90;;;;;;5084448;28;21221;-57
2021/12/12 04:22:34;;;;;;;15.20;13.93;;;1.10;99.90;;;;;;5084747;28;20692;-57
2021/12/12 04:25:15;;;;;;;14.18;12.98;;;1.10;99.90;;;;;;5084136;28;20656;-57
2021/12/12 04:27:54;;;;;;;15.70;14.23;;;1.00;99.90;;;;;;5085124;27;20536;-57
2021/12/12 04:30:33;;;;;;;14.32;13.18;;;1.00;99.90;;;;;;5105222;27;20546;-57
2021/12/12 04:33:14;;;;;;;14.65;13.38;;;0.90;99.90;;;;;;5105303;27;20665;-57
2021/12/12 04:35:53;;;;;;;14.77;13.63;;;0.90;99.90;;;;;;5104791;27;20533;-57
2021/12/12 04:38:33;;;;;;;15.15;13.80;;;0.80;99.90;;;;;;5084903;28;20562;-57
2021/12/12 04:41:13;;;;;;;16.40;15.10;;;0.90;99.90;;;;;;5085230;28;21213;-57
2021/12/12 04:43:53;;;;;;;15.30;13.93;;;0.90;99.90;;;;;;5084653;28;20667;-57
2021/12/12 04:49:55;;;;;;;14.68;13.48;;;0.90;99.90;;;;;;5081947;27;20563;-57
2021/12/12 04:49:55;;;;;;;14.65;13.43;;;1.00;99.90;;;;;;5084515;28;20676;-57
2021/12/12 04:52:41;;;;;;;16.52;15.10;;;1.00;99.90;;;;;;5084855;28;20675;-57
2021/12/12 04:55:28;;;;;;;15.00;13.70;;;1.10;99.90;;;;;;5084379;28;20664;-57
2021/12/12 04:58:13;;;;;;;14.60;13.30;;;1.10;99.90;;;;;;5085039;27;21083;-57
2021/12/12 05:01:03;;;;;;;14.75;13.55;;;1.10;99.90;;;;;;5105930;27;20550;-57
2021/12/12 05:03:50;;;;;;;17.10;15.52;;;1.10;99.90;;;;;;5084768;27;20543;-57
2021/12/12 05:06:37;;;;;;;16.80;15.25;;;1.10;99.90;;;;;;5125197;27;21172;-57
2021/12/12 05:09:25;;;;;;;17.63;15.82;;;1.20;99.90;;;;;;5084696;28;20667;-57
2021/12/12 05:12:08;;;;;;;21.25;19.15;;;1.20;99.90;;;;;;5084709;27;20543;-57
2021/12/12 05:14:55;;;;;;;22.20;19.77;;;1.10;99.90;;;;;;5145302;27;20665;-57
2021/12/12 05:17:39;;;;;;;20.42;18.55;;;1.20;99.90;;;;;;5084870;28;20667;-57
2021/12/12 05:20:22;;;;;;;16.00;14.70;;;1.10;99.90;;;;;;5084472;27;20928;-57
2021/12/12 05:23:07;;;;;;;16.13;14.73;;;1.20;99.90;;;;;;5084090;28;21212;-57
2021/12/12 05:25:51;;;;;;;14.57;13.40;;;1.20;99.90;;;;;;5124772;27;20528;-57
2021/12/12 05:28:33;;;;;;;14.63;13.35;;;1.20;99.90;;;;;;5084615;28;20691;-57
2021/12/12 05:31:14;;;;;;;13.50;12.40;;;1.20;99.90;;;;;;5146166;27;20674;-57
2021/12/12 05:33:55;;;;;;;13.40;12.38;;;1.20;99.90;;;;;;5084042;27;20573;-57
2021/12/12 05:36:36;;;;;;;13.93;12.82;;;1.20;99.90;;;;;;5084077;28;20656;-57
2021/12/12 05:39:16;;;;;;;16.27;14.77;;;1.20;99.90;;;;;;5084595;28;20667;-57
2021/12/12 05:41:57;;;;;;;15.07;13.88;;;1.20;99.90;;;;;;5084723;27;20551;-57
2021/12/12 05:44:37;;;;;;;16.15;14.57;;;1.20;99.90;;;;;;5083899;27;20551;-57
2021/12/12 05:47:17;;;;;;;15.48;14.15;;;1.20;99.90;;;;;;5081067;28;20680;-57
2021/12/12 05:49:58;;;;;;;16.10;14.75;;;1.20;99.90;;;;;;5104804;27;20945;-57
2021/12/12 05:52:39;;;;;;;20.27;18.48;;;1.20;99.90;;;;;;5105488;27;20533;-57
2021/12/12 05:55:18;;;;;;;20.63;18.65;;;1.20;99.90;;;;;;5145886;27;20666;-57
2021/12/12 05:58:00;;;;;;;19.40;17.55;;;1.30;99.90;;;;;;5105411;27;20542;-57
2021/12/12 06:00:42;;;;;;;17.52;15.95;;;1.20;99.90;;;;;;5084685;27;20569;-57
2021/12/12 06:03:26;;;;;;;16.83;15.38;;;1.30;99.90;;;;;;5084286;28;20664;-57
2021/12/12 06:06:09;;;;;;;15.98;14.65;;;1.30;99.90;;;;;;5084073;28;20656;-57
2021/12/12 06:08:49;;;;;;;16.05;14.75;;;1.30;99.90;;;;;;5084928;27;21069;-57
2021/12/12 06:11:33;;;;;;;15.65;14.30;;;1.20;99.90;;;;;;5104485;27;20689;-57
2021/12/12 06:14:13;;;;;;;14.85;13.65;;;1.30;99.90;;;;;;5104975;27;20545;-57
2021/12/12 06:16:53;;;;;;;15.70;14.32;;;1.30;99.90;;;;;;5084566;28;21032;-57
2021/12/12 06:19:33;;;;;;;17.13;15.52;;;1.30;99.90;;;;;;5084896;27;21002;-57
2021/12/12 06:22:12;;;;;;;17.25;15.65;;;1.30;99.90;;;;;;5084248;27;20548;-56
2021/12/12 06:24:53;;;;;;;20.33;16.20;;;1.30;99.90;;;;;;5104284;27;20669;-57
2021/12/12 06:27:33;;;;;;;15.80;14.27;;;1.30;99.90;;;;;;5126005;27;20875;-57
2021/12/12 06:30:16;;;;;;;16.80;15.13;;;1.30;99.90;;;;;;5103395;27;20561;-57
2021/12/12 06:32:56;;;;;;;15.10;13.65;;;1.30;99.90;;;;;;5125546;27;20539;-57
2021/12/12 06:35:36;;;;;;;15.88;14.23;;;1.30;99.90;;;;;;5144669;27;20534;-57
2021/12/12 06:38:18;;;;;;;15.65;14.25;;;1.20;99.90;;;;;;5084878;28;20668;-57
2021/12/12 06:40:59;;;;;;;16.15;14.68;;;1.20;99.90;;;;;;5104850;27;20541;-57
2021/12/12 06:43:41;;;;;;;14.05;12.95;;;1.30;99.90;;;;;;5125284;27;20679;-57
2021/12/12 06:46:22;;;;;;;17.77;13.88;;;1.20;99.90;;;;;;5143862;27;20649;-57
2021/12/12 06:49:04;;;;;;;17.75;12.93;;;1.20;99.90;;;;;;5084443;28;20691;-57
2021/12/12 06:51:47;;;;;;;17.00;13.25;;;1.20;99.90;;;;;;5145958;27;21025;-57
2021/12/12 06:54:29;;;;;;;14.57;13.20;;;1.20;99.90;;;;;;5083871;28;20659;-56
2021/12/12 06:57:13;;;;;;;15.07;13.82;;;1.20;99.90;;;;;;5085224;27;20562;-56
2021/12/12 06:59:54;;;;;;;13.77;12.50;;;1.20;99.90;;;;;;5075535;27;20587;-57
2021/12/12 07:02:33;;;;;;;13.70;11.93;;;1.20;99.90;;;;;;5145280;27;20704;-57
2021/12/12 07:05:15;;;;;;;12.77;11.55;;;1.20;99.90;;;;;;5083874;27;20727;-57
2021/12/12 07:07:55;;;;;;;13.18;11.98;;;1.30;99.90;;;;;;5084834;27;20544;-57
2021/12/12 07:10:34;;;;;;;11.90;10.88;;;1.30;99.90;;;;;;5085113;27;20589;-57
2021/12/12 07:13:15;;;;;;;12.82;11.65;;;1.30;99.90;;;;;;5105110;27;21224;-57
2021/12/12 07:15:59;;;;;;;12.48;11.38;;;1.40;99.90;;;;;;5145500;27;20680;-57
2021/12/12 07:18:39;;;;;;;13.65;12.55;;;1.40;99.90;;;;;;5146847;27;20653;-57
2021/12/12 07:21:19;;;;;;;12.05;11.02;;;1.40;99.90;;;;;;5084650;27;20695;-57
2021/12/12 07:24:00;;;;;;;12.85;11.75;;;1.50;99.90;;;;;;5104417;27;20945;-57
2021/12/12 07:26:40;;;;;;;12.65;11.45;;;1.50;99.90;;;;;;5084478;27;20543;-57
2021/12/12 07:29:20;;;;;;;12.80;11.60;;;1.50;99.90;;;;;;5146444;27;20665;-57
2021/12/12 07:32:00;;;;;;;12.77;11.68;;;1.50;99.90;;;;;;5144760;27;20949;-56
2021/12/12 07:34:39;;;;;;;12.88;11.50;;;1.60;99.90;;;;;;5081986;27;21021;-56
2021/12/12 07:37:19;;;;;;;13.23;12.13;;;1.60;99.90;;;;;;5084119;28;20668;-57
2021/12/12 07:39:59;;;;;;;11.88;10.88;;;1.60;99.90;;;;;;5083521;28;20680;-57
2021/12/12 07:42:40;;;;;;;12.07;11.07;;;1.60;99.90;;;;;;5083209;28;20664;-57
2021/12/12 07:45:23;;;;;;;10.75;9.77;;;1.70;99.90;;;;;;5082198;28;20547;-57
2021/12/12 07:48:07;;;;;;;11.25;10.35;;;1.70;99.90;;;;;;5105357;27;20546;-56
2021/12/12 07:50:48;;;;;;;11.63;10.73;;;1.70;99.90;;;;;;5084391;28;20563;-56
2021/12/12 07:53:29;;;;;;;11.43;10.52;;;1.70;99.90;;;;;;5104559;27;20669;-56
2021/12/12 07:56:09;;;;;;;11.02;10.13;;;1.70;99.90;;;;;;5084498;28;20691;-57
2021/12/12 07:58:50;;;;;;;14.35;11.73;;;1.70;99.90;;;;;;5104991;27;20526;-56
2021/12/12 08:01:29;;;;;;;11.95;10.95;;;1.70;99.90;;;;;;5084702;28;20555;-56
2021/12/12 08:04:10;;;;;;;11.98;10.77;;;1.80;99.90;;;;;;5084611;28;20952;-57
2021/12/12 08:06:51;;;;;;;10.38;9.52;;;1.80;99.90;;;;;;5085117;27;20553;-56
2021/12/12 08:09:32;;;;;;;10.30;9.23;;;1.80;99.90;;;;;;5104736;27;20545;-57
2021/12/12 08:12:13;;;;;;;10.73;9.35;;;1.80;99.90;;;;;;5084564;28;20655;-56
2021/12/12 08:14:53;;;;;;;8.18;7.47;;;1.80;99.90;;;;;;5145595;27;20953;-57
2021/12/12 08:17:33;;;;;;;9.77;6.93;;;1.80;99.90;;;;;;5084555;28;20565;-56
2021/12/12 08:20:15;;;;;;;7.10;6.40;;;1.80;99.90;;;;;;5105125;27;20670;-56
2021/12/12 08:22:55;;;;;;;7.05;6.32;;;1.80;99.90;;;;;;5084399;28;20593;-56
2021/12/12 08:25:36;;;;;;;6.70;6.20;;;1.80;99.90;;;;;;5083905;28;20656;-57
2021/12/12 08:28:16;;;;;;;4.93;4.53;;;1.90;99.90;;;;;;5105088;27;20587;-56
2021/12/12 08:30:55;;;;;;;4.20;3.00;;;1.90;99.90;;;;;;5082992;27;20565;-57
2021/12/12 08:33:35;;;;;;;3.60;3.10;;;2.00;99.90;;;;;;5145792;27;20950;-56
2021/12/12 08:36:15;;;;;;;5.15;2.50;;;2.00;99.90;;;;;;5146124;27;21023;-55
2021/12/12 08:38:54;;;;;;;2.65;2.40;;;2.10;99.90;;;;;;5125732;27;20548;-56
2021/12/12 08:41:36;;;;;;;2.75;1.80;;;2.20;99.90;;;;;;5125709;27;20991;-57
2021/12/12 08:44:16;;;;;;;2.70;2.50;;;2.20;99.90;;;;;;5084534;28;20593;-56
2021/12/12 08:46:58;;;;;;;6.57;4.43;;;2.30;99.90;;;;;;5083368;28;21189;-56
2021/12/12 08:49:40;;;;;;;4.03;3.03;;;2.30;99.90;;;;;;5084533;27;20550;-57
2021/12/12 08:52:26;;;;;;;4.63;3.40;;;2.30;99.90;;;;;;5084976;28;20575;-57
2021/12/12 08:55:14;;;;;;;4.70;2.95;;;2.30;99.90;;;;;;5104711;27;20603;-56
2021/12/12 08:58:00;;;;;;;4.32;2.65;;;2.30;99.90;;;;;;5105015;27;20562;-56
2021/12/12 09:00:44;;;;;;;3.22;2.72;;;2.30;99.90;;;;;;5084926;28;21189;-56
2021/12/12 09:03:27;;;;;;;3.47;3.17;;;2.30;99.90;;;;;;5104695;27;20599;-56
2021/12/12 09:06:11;;;;;;;6.40;4.53;;;2.30;99.90;;;;;;5145759;27;20530;-56
2021/12/12 09:08:57;;;;;;;6.45;4.30;;;2.30;99.90;;;;;;5146321;27;20538;-56
2021/12/12 09:11:44;;;;;;;3.63;3.30;;;2.30;99.90;;;;;;5104809;27;21049;-55
2021/12/12 09:14:29;;;;;;;3.08;2.20;;;2.30;99.90;;;;;;5123933;27;20536;-56
2021/12/12 09:17:13;;;;;;;2.67;2.45;;;2.30;99.90;;;;;;5105338;27;20595;-56
2021/12/12 09:19:56;;;;;;;1.92;1.80;;;2.30;99.90;;;;;;5147134;27;20596;-57
2021/12/12 09:22:41;;;;;;;2.75;2.20;;;2.40;99.90;;;;;;5080679;27;20680;-56
2021/12/12 09:25:34;;;;;;;2.38;1.90;;;2.40;99.90;;;;;;5115115;27;20543;-57
2021/12/12 09:28:23;;;;;;;3.80;2.95;;;2.40;99.90;;;;;;5085039;28;20543;-56
2021/12/12 09:31:05;;;;;;;3.83;3.35;;;2.50;99.90;;;;;;5158975;27;21092;-56
2021/12/12 09:33:49;;;;;;;5.82;3.22;;;2.50;99.90;;;;;;5084291;27;20910;-56
2021/12/12 09:36:36;;;;;;;3.88;3.47;;;2.50;99.90;;;;;;5084784;27;21056;-56
2021/12/12 09:39:21;;;;;;;5.45;3.67;;;2.50;99.90;;;;;;5124979;27;20536;-56
2021/12/12 09:42:28;;;;;;;3.33;3.00;;;2.60;99.90;;;;;;5125176;27;20559;-56
2021/12/12 09:45:47;;;;;;;2.28;2.08;;;2.70;99.90;;;;;;5104138;27;20608;-56
2021/12/12 09:52:27;;;;;;;3.90;3.00;;;3.30;99.90;;;;;;5146231;27;20950;-56
2021/12/12 09:55:12;;;;;;;4.47;2.95;;;3.70;99.90;;;;;;5083290;28;20679;-56
2021/12/12 09:57:56;;;;;;;3.47;2.67;;;3.80;99.90;;;;;;5084824;27;21072;-56
2021/12/12 10:00:42;;;;;;;2.53;2.33;;;3.90;99.90;;;;;;5145813;27;20678;-56
2021/12/12 10:03:27;;;;;;;2.80;2.35;;;4.00;99.90;;;;;;5084377;27;20535;-56
2021/12/12 10:06:09;;;;;;;3.35;2.78;;;4.10;99.90;;;;;;5098816;27;21066;-56
2021/12/12 10:09:06;;;;;;;3.15;2.38;;;4.20;99.90;;;;;;5121332;27;21211;-56
2021/12/12 10:11:50;;;;;;;2.45;2.25;;;4.30;99.90;;;;;;5080038;28;21050;-56
2021/12/12 10:14:39;;;;;;;3.72;2.40;;;4.30;99.90;;;;;;5081913;28;20663;-56
2021/12/12 10:17:32;;;;;;;2.35;1.92;;;4.30;99.90;;;;;;5145009;27;20550;-56
2021/12/12 10:20:15;;;;;;;3.72;2.50;;;4.30;99.90;;;;;;5150618;27;21082;-56
2021/12/12 10:23:07;;;;;;;4.47;3.15;;;4.30;99.90;;;;;;5081609;28;20711;-56
2021/12/12 10:25:54;;;;;;;4.35;3.05;;;4.20;99.90;;;;;;5080365;28;21279;-56
2021/12/12 10:28:38;;;;;;;6.47;2.75;;;4.30;99.90;;;;;;5080844;28;20687;-56
2021/12/12 10:31:23;;;;;;;2.95;2.67;;;4.30;99.90;;;;;;5078561;27;20922;-56
2021/12/12 10:34:06;;;;;;;5.28;2.97;;;4.30;99.90;;;;;;5083099;27;20548;-56
2021/12/12 10:36:52;;;;;;;2.90;2.22;;;4.40;99.90;;;;;;5082810;28;21178;-56
2021/12/12 10:39:35;;;;;;;2.90;2.55;;;4.40;99.90;;;;;;5124859;27;20561;-56
2021/12/12 10:42:17;;;;;;;4.32;2.85;;;4.50;99.90;;;;;;5083290;27;20563;-56
2021/12/12 10:45:01;;;;;;;3.20;2.22;;;4.50;99.90;;;;;;5103802;27;20839;-56
2021/12/12 10:47:53;;;;;;;2.38;2.03;;;4.70;99.90;;;;;;5083864;28;20684;-56
2021/12/12 10:50:44;;;;;;;2.63;2.35;;;4.70;99.90;;;;;;5093481;27;20556;-56
2021/12/12 10:53:32;;;;;;;3.30;2.58;;;4.80;99.90;;;;;;5143597;27;20712;-56
2021/12/12 10:56:27;;;;;;;3.85;3.58;;;4.80;99.90;;;;;;5083641;28;21031;-56
2021/12/12 10:59:19;;;;;;;2.72;2.47;;;4.80;99.90;;;;;;5164996;27;20655;-56
2021/12/12 11:02:00;;;;;;;3.22;2.70;;;4.90;99.90;;;;;;5084472;28;20867;-56
2021/12/12 11:04:45;;;;;;;4.30;2.53;;;4.80;99.90;;;;;;5145094;27;20653;-56
2021/12/12 11:07:28;;;;;;;3.63;3.20;;;4.80;99.90;;;;;;5124953;27;20532;-56
2021/12/12 11:10:14;;;;;;;3.28;2.75;;;4.90;99.90;;;;;;5103275;27;20554;-56
2021/12/12 11:12:58;;;;;;;3.50;2.47;;;5.00;99.90;;;;;;5145717;27;21070;-56
2021/12/12 11:15:42;;;;;;;3.40;3.10;;;5.10;99.90;;;;;;5124622;27;20536;-56
2021/12/12 11:18:28;;;;;;;3.45;2.72;;;5.20;99.90;;;;;;5146110;27;20669;-56
2021/12/12 11:21:12;;;;;;;3.88;3.17;;;5.20;99.90;;;;;;5084444;28;20971;-56
2021/12/12 11:23:56;;;;;;;2.80;2.60;;;5.10;99.90;;;;;;5084093;28;20675;-56
2021/12/12 11:26:40;;;;;;;3.55;3.25;;;5.10;99.90;;;;;;5082742;28;20656;-56
2021/12/12 11:29:25;;;;;;;3.20;2.70;;;5.10;99.90;;;;;;5084771;28;20660;-56
2021/12/12 11:32:09;;;;;;;5.88;3.17;;;5.10;99.90;;;;;;5105685;27;20542;-56
2021/12/12 11:34:52;;;;;;;4.18;3.55;;;5.10;99.90;;;;;;5083882;28;21201;-56
2021/12/12 11:37:38;;;;;;;3.70;3.30;;;5.10;99.90;;;;;;5105196;27;21297;-56
2021/12/12 11:40:23;;;;;;;3.85;3.20;;;5.10;99.90;;;;;;5084247;27;20585;-56
2021/12/12 11:43:17;;;;;;;3.50;2.88;;;5.20;99.90;;;;;;5084375;27;20577;-56
2021/12/12 11:46:01;;;;;;;6.45;3.13;;;5.10;99.90;;;;;;5084654;27;20583;-56
2021/12/12 11:48:51;;;;;;;3.67;3.38;;;5.00;99.90;;;;;;5146473;27;21063;-56
2021/12/12 11:51:34;;;;;;;3.90;3.38;;;4.90;99.90;;;;;;5084743;27;20567;-56
2021/12/12 11:54:28;;;;;;;4.07;3.15;;;4.90;99.90;;;;;;5145631;27;21017;-56
2021/12/12 11:57:12;;;;;;;3.67;3.38;;;4.90;99.90;;;;;;5105028;27;20681;-56
2021/12/12 12:00:03;;;;;;;4.53;3.47;;;4.90;99.90;;;;;;5146085;27;20616;-56
2021/12/12 12:02:55;;;;;;;3.47;3.17;;;4.80;99.90;;;;;;5145842;27;21202;-56
2021/12/12 12:05:37;;;;;;;3.75;3.38;;;4.70;99.90;;;;;;5143466;27;20676;-56
2021/12/12 12:08:36;;;;;;;4.00;3.35;;;4.70;99.90;;;;;;5084775;28;20569;-56
2021/12/12 12:11:33;;;;;;;8.48;3.70;;;4.70;99.90;;;;;;5125208;27;20552;-56
2021/12/12 12:14:23;;;;;;;4.53;3.50;;;4.70;99.90;;;;;;5084043;27;20684;-56
2021/12/12 12:17:09;;;;;;;5.05;4.55;;;4.70;99.90;;;;;;5125456;27;20532;-56
2021/12/12 12:20:05;;;;;;;4.10;3.80;;;4.60;99.90;;;;;;5145871;27;20952;-56
2021/12/12 12:22:48;;;;;;;4.97;4.45;;;4.60;99.90;;;;;;5104919;27;20534;-56
2021/12/12 12:26:50;;;;;;;4.05;3.75;;;4.80;99.90;;;;;;5082531;28;20679;-56
2021/12/12 12:28:42;;;;;;;3.83;3.45;;;4.90;99.90;;;;;;5084658;28;20551;-56
2021/12/12 12:31:52;;;;;;;4.00;2.97;;;4.80;99.90;;;;;;5083989;28;20696;-56
2021/12/12 12:35:04;;;;;;;13.20;9.75;;;4.80;99.90;;;;;;5083569;27;20960;-56
2021/12/12 12:38:20;;;;;;;4.18;3.88;;;4.80;99.90;;;;;;5085202;27;20536;-56
2021/12/12 12:41:35;;;;;;;4.35;3.95;;;4.70;99.90;;;;;;5125639;27;20548;-56
2021/12/12 12:44:50;;;;;;;4.88;4.38;;;4.60;99.90;;;;;;5083627;28;20660;-56
2021/12/12 12:48:10;;;;;;;4.72;4.38;;;4.50;99.90;;;;;;5103354;27;20793;-56
2021/12/12 12:51:08;;;;;;;5.07;4.63;;;4.40;99.90;;;;;;5085598;27;20576;-56
2021/12/12 12:54:16;;;;;;;4.38;4.07;;;4.30;99.90;;;;;;5084244;28;21056;-56
2021/12/12 12:57:11;;;;;;;4.50;4.13;;;4.20;99.90;;;;;;5084539;27;20539;-56
2021/12/12 12:59:55;;;;;;;5.55;4.65;;;4.10;99.90;;;;;;5084636;28;20664;-56
2021/12/12 13:03:12;;;;;;;5.00;4.60;;;4.00;99.90;;;;;;5145880;27;20661;-56
2021/12/12 13:06:28;;;;;;;4.82;4.45;;;4.00;99.90;;;;;;5084045;28;20652;-56
2021/12/12 13:09:21;;;;;;;4.85;4.32;;;4.00;99.90;;;;;;5124998;27;20529;-56
2021/12/12 13:12:38;;;;;;;4.32;4.03;;;4.20;99.90;;;;;;5080393;28;20660;-56
2021/12/12 13:15:31;;;;;;;5.38;4.32;;;4.40;99.90;;;;;;5082836;28;21212;-56
2021/12/12 13:18:27;;;;;;;4.95;4.55;;;4.50;99.90;;;;;;5084299;28;20659;-56
2021/12/12 13:21:26;;;;;;;5.15;4.65;;;4.50;99.90;;;;;;5104321;27;20674;-56
2021/12/12 13:24:18;;;;;;;4.22;3.90;;;4.50;99.90;;;;;;5104325;27;20669;-56
2021/12/12 13:27:09;;;;;;;5.65;5.25;;;4.50;99.90;;;;;;5123194;27;20570;-56
2021/12/12 13:30:06;;;;;;;5.75;5.25;;;4.50;99.90;;;;;;5084271;28;21015;-56
2021/12/12 13:32:56;;;;;;;6.20;5.60;;;4.40;99.90;;;;;;5103907;27;20569;-56
2021/12/12 13:35:47;;;;;;;8.45;7.65;;;4.30;99.90;;;;;;5083476;28;21220;-56
2021/12/12 13:38:39;;;;;;;5.72;5.20;;;4.20;99.90;;;;;;5083971;27;20543;-56
2021/12/12 13:41:27;;;;;;;5.32;4.85;;;4.00;99.90;;;;;;5145071;27;20681;-56
2021/12/12 13:44:17;;;;;;;4.60;4.20;;;3.90;99.90;;;;;;5083591;28;20668;-56
2021/12/12 13:47:12;;;;;;;5.20;4.80;;;3.70;99.90;;;;;;5083267;27;20863;-56
2021/12/12 13:50:03;;;;;;;4.45;4.05;;;3.60;99.90;;;;;;5084993;27;20894;-56
2021/12/12 13:52:50;;;;;;;4.22;3.83;;;3.50;99.90;;;;;;5085142;27;20569;-57
2021/12/12 13:55:35;;;;;;;4.40;4.00;;;3.40;99.90;;;;;;5084080;27;20535;-57
2021/12/12 13:58:23;;;;;;;4.18;3.72;;;3.30;99.90;;;;;;5085406;28;20656;-56
2021/12/12 14:01:08;;;;;;;4.20;3.90;;;3.40;99.90;;;;;;5084432;28;20559;-56
2021/12/12 14:03:54;;;;;;;4.90;3.97;;;3.40;99.90;;;;;;5105212;27;20619;-56
2021/12/12 14:06:36;;;;;;;4.80;4.40;;;3.40;99.90;;;;;;5084182;27;20547;-56
2021/12/12 14:09:22;;;;;;;5.60;5.10;;;3.40;99.90;;;;;;5084945;27;20571;-56
2021/12/12 14:12:04;;;;;;;3.92;3.50;;;3.30;99.90;;;;;;5084153;28;21196;-56
2021/12/12 14:14:53;;;;;;;4.72;4.35;;;3.30;99.90;;;;;;5084280;27;20703;-56
2021/12/12 14:17:40;;;;;;;5.10;4.70;;;3.20;99.90;;;;;;5146280;27;20531;-56
2021/12/12 14:20:22;;;;;;;6.15;4.57;;;3.10;99.90;;;;;;5084354;27;20551;-56
2021/12/12 14:23:03;;;;;;;4.57;4.18;;;3.10;99.90;;;;;;5146026;27;20554;-56
2021/12/12 14:25:47;;;;;;;4.32;3.95;;;3.00;99.90;;;;;;5145238;27;21082;-57
2021/12/12 14:28:27;;;;;;;5.95;4.72;;;2.90;99.90;;;;;;5105195;27;20688;-56
2021/12/12 14:31:09;;;;;;;4.50;4.10;;;2.80;99.90;;;;;;5103769;27;20553;-56
2021/12/12 14:33:58;;;;;;;5.20;4.68;;;2.80;99.90;;;;;;5104521;27;20541;-56